sensor_id;sensor_type;location;lat;lon;timestamp;P1;durP1;ratioP1;P2;durP2;ratioP2
41755;SDS011;27435;48.480;9.258;2023-08-12T00:00:15;6.93;;;2.97;;
41755;SDS011;27435;48.480;9.258;2023-08-12T00:02:41;4.57;;;3.10;;
41755;SDS011;27435;48.480;9.258;2023-08-12T00:05:08;6.85;;;2.85;;
41755;SDS011;27435;48.480;9.258;2023-08-12T00:07:37;4.70;;;2.95;;
41755;SDS011;27435;48.480;9.258;2023-08-12T00:10:05;6.20;;;3.50;;
41755;SDS011;27435;48.480;9.258;2023-08-12T00:12:32;6.38;;;2.78;;
41755;SDS011;27435;48.480;9.258;2023-08-12T00:14:58;3.85;;;2.70;;
41755;SDS011;27435;48.480;9.258;2023-08-12T00:17:24;7.43;;;3.00;;
41755;SDS011;27435;48.480;9.258;2023-08-12T00:19:50;6.50;;;2.83;;
41755;SDS011;27435;48.480;9.258;2023-08-12T00:22:15;7.88;;;3.15;;
41755;SDS011;27435;48.480;9.258;2023-08-12T00:24:41;4.72;;;3.10;;
41755;SDS011;27435;48.480;9.258;2023-08-12T00:27:07;4.72;;;3.08;;
41755;SDS011;27435;48.480;9.258;2023-08-12T00:29:34;5.05;;;3.22;;
41755;SDS011;27435;48.480;9.258;2023-08-12T00:32:00;5.50;;;2.90;;
41755;SDS011;27435;48.480;9.258;2023-08-12T00:34:26;4.97;;;3.28;;
41755;SDS011;27435;48.480;9.258;2023-08-12T00:36:52;6.40;;;3.40;;
41755;SDS011;27435;48.480;9.258;2023-08-12T00:39:17;4.07;;;2.78;;
41755;SDS011;27435;48.480;9.258;2023-08-12T00:41:43;5.07;;;2.95;;
41755;SDS011;27435;48.480;9.258;2023-08-12T00:44:08;5.80;;;2.83;;
41755;SDS011;27435;48.480;9.258;2023-08-12T00:46:34;5.53;;;3.10;;
41755;SDS011;27435;48.480;9.258;2023-08-12T00:49:01;5.18;;;2.95;;
41755;SDS011;27435;48.480;9.258;2023-08-12T00:51:27;7.07;;;3.92;;
41755;SDS011;27435;48.480;9.258;2023-08-12T00:53:53;7.85;;;3.28;;
41755;SDS011;27435;48.480;9.258;2023-08-12T00:56:21;5.43;;;3.70;;
41755;SDS011;27435;48.480;9.258;2023-08-12T00:58:46;8.02;;;3.38;;
41755;SDS011;27435;48.480;9.258;2023-08-12T01:01:12;6.57;;;3.63;;
41755;SDS011;27435;48.480;9.258;2023-08-12T01:03:38;8.02;;;3.20;;
41755;SDS011;27435;48.480;9.258;2023-08-12T01:06:04;5.05;;;3.03;;
41755;SDS011;27435;48.480;9.258;2023-08-12T01:08:31;6.18;;;3.17;;
41755;SDS011;27435;48.480;9.258;2023-08-12T01:11:06;5.13;;;3.17;;
41755;SDS011;27435;48.480;9.258;2023-08-12T01:13:49;6.22;;;3.03;;
41755;SDS011;27435;48.480;9.258;2023-08-12T01:16:19;6.30;;;2.88;;
41755;SDS011;27435;48.480;9.258;2023-08-12T01:18:47;4.80;;;3.08;;
41755;SDS011;27435;48.480;9.258;2023-08-12T01:21:15;8.20;;;3.20;;
41755;SDS011;27435;48.480;9.258;2023-08-12T01:23:42;5.85;;;3.47;;
41755;SDS011;27435;48.480;9.258;2023-08-12T01:26:11;4.90;;;3.00;;
41755;SDS011;27435;48.480;9.258;2023-08-12T01:28:36;7.28;;;3.25;;
41755;SDS011;27435;48.480;9.258;2023-08-12T01:34:02;10.68;;;3.10;;
41755;SDS011;27435;48.480;9.258;2023-08-12T01:36:36;8.27;;;3.58;;
41755;SDS011;27435;48.480;9.258;2023-08-12T01:39:04;5.35;;;3.50;;
41755;SDS011;27435;48.480;9.258;2023-08-12T01:41:33;7.57;;;3.13;;
41755;SDS011;27435;48.480;9.258;2023-08-12T01:44:00;5.75;;;2.90;;
41755;SDS011;27435;48.480;9.258;2023-08-12T01:46:27;7.18;;;3.63;;
41755;SDS011;27435;48.480;9.258;2023-08-12T01:48:53;5.35;;;3.15;;
41755;SDS011;27435;48.480;9.258;2023-08-12T01:51:18;6.32;;;3.47;;
41755;SDS011;27435;48.480;9.258;2023-08-12T01:53:44;5.35;;;3.30;;
41755;SDS011;27435;48.480;9.258;2023-08-12T01:56:10;7.13;;;3.45;;
41755;SDS011;27435;48.480;9.258;2023-08-12T01:58:35;6.05;;;3.17;;
41755;SDS011;27435;48.480;9.258;2023-08-12T02:01:01;7.60;;;2.83;;
41755;SDS011;27435;48.480;9.258;2023-08-12T02:03:26;5.68;;;3.13;;
41755;SDS011;27435;48.480;9.258;2023-08-12T02:05:52;4.35;;;2.80;;
41755;SDS011;27435;48.480;9.258;2023-08-12T02:08:18;6.88;;;3.75;;
41755;SDS011;27435;48.480;9.258;2023-08-12T02:10:43;5.72;;;3.47;;
41755;SDS011;27435;48.480;9.258;2023-08-12T02:13:09;5.55;;;2.70;;
41755;SDS011;27435;48.480;9.258;2023-08-12T02:15:34;5.35;;;2.70;;
41755;SDS011;27435;48.480;9.258;2023-08-12T02:18:00;5.40;;;3.58;;
41755;SDS011;27435;48.480;9.258;2023-08-12T02:20:25;4.90;;;2.80;;
41755;SDS011;27435;48.480;9.258;2023-08-12T02:22:51;7.43;;;2.92;;
41755;SDS011;27435;48.480;9.258;2023-08-12T02:25:16;6.47;;;3.10;;
41755;SDS011;27435;48.480;9.258;2023-08-12T02:27:42;4.55;;;3.28;;
41755;SDS011;27435;48.480;9.258;2023-08-12T02:30:08;4.32;;;2.55;;
41755;SDS011;27435;48.480;9.258;2023-08-12T02:32:35;5.80;;;3.05;;
41755;SDS011;27435;48.480;9.258;2023-08-12T02:35:01;6.05;;;3.15;;
41755;SDS011;27435;48.480;9.258;2023-08-12T02:37:26;7.00;;;3.38;;
41755;SDS011;27435;48.480;9.258;2023-08-12T02:39:52;6.32;;;3.47;;
41755;SDS011;27435;48.480;9.258;2023-08-12T02:42:18;5.80;;;3.53;;
41755;SDS011;27435;48.480;9.258;2023-08-12T02:44:43;10.50;;;3.50;;
41755;SDS011;27435;48.480;9.258;2023-08-12T02:47:09;5.30;;;3.38;;
41755;SDS011;27435;48.480;9.258;2023-08-12T02:49:34;8.63;;;3.60;;
41755;SDS011;27435;48.480;9.258;2023-08-12T02:52:00;9.25;;;3.63;;
41755;SDS011;27435;48.480;9.258;2023-08-12T02:54:25;8.05;;;3.80;;
41755;SDS011;27435;48.480;9.258;2023-08-12T02:56:51;7.53;;;3.20;;
41755;SDS011;27435;48.480;9.258;2023-08-12T02:59:17;6.15;;;3.17;;
41755;SDS011;27435;48.480;9.258;2023-08-12T03:01:42;7.30;;;3.70;;
41755;SDS011;27435;48.480;9.258;2023-08-12T03:04:08;8.75;;;3.00;;
41755;SDS011;27435;48.480;9.258;2023-08-12T03:06:34;5.63;;;3.05;;
41755;SDS011;27435;48.480;9.258;2023-08-12T03:08:59;6.38;;;2.92;;
41755;SDS011;27435;48.480;9.258;2023-08-12T03:11:25;7.82;;;3.25;;
41755;SDS011;27435;48.480;9.258;2023-08-12T03:13:50;6.18;;;2.80;;
41755;SDS011;27435;48.480;9.258;2023-08-12T03:16:16;4.53;;;3.05;;
41755;SDS011;27435;48.480;9.258;2023-08-12T03:18:41;5.63;;;3.10;;
41755;SDS011;27435;48.480;9.258;2023-08-12T03:21:07;6.55;;;3.10;;
41755;SDS011;27435;48.480;9.258;2023-08-12T03:23:36;4.03;;;2.63;;
41755;SDS011;27435;48.480;9.258;2023-08-12T03:26:03;5.90;;;3.38;;
41755;SDS011;27435;48.480;9.258;2023-08-12T03:28:29;4.65;;;3.20;;
41755;SDS011;27435;48.480;9.258;2023-08-12T03:30:55;6.85;;;2.75;;
41755;SDS011;27435;48.480;9.258;2023-08-12T03:33:21;5.50;;;3.17;;
41755;SDS011;27435;48.480;9.258;2023-08-12T03:35:47;7.03;;;3.65;;
41755;SDS011;27435;48.480;9.258;2023-08-12T03:38:14;4.68;;;3.05;;
41755;SDS011;27435;48.480;9.258;2023-08-12T03:40:40;5.82;;;3.20;;
41755;SDS011;27435;48.480;9.258;2023-08-12T03:43:06;4.47;;;2.65;;
41755;SDS011;27435;48.480;9.258;2023-08-12T03:45:32;7.07;;;3.28;;
41755;SDS011;27435;48.480;9.258;2023-08-12T03:47:58;5.40;;;2.83;;
41755;SDS011;27435;48.480;9.258;2023-08-12T03:50:24;5.50;;;3.25;;
41755;SDS011;27435;48.480;9.258;2023-08-12T03:52:49;9.27;;;2.95;;
41755;SDS011;27435;48.480;9.258;2023-08-12T03:55:15;8.85;;;3.67;;
41755;SDS011;27435;48.480;9.258;2023-08-12T03:57:41;7.35;;;3.30;;
41755;SDS011;27435;48.480;9.258;2023-08-12T04:00:06;5.78;;;3.42;;
41755;SDS011;27435;48.480;9.258;2023-08-12T04:02:33;6.28;;;3.60;;
41755;SDS011;27435;48.480;9.258;2023-08-12T04:04:59;11.48;;;4.20;;
41755;SDS011;27435;48.480;9.258;2023-08-12T04:07:25;5.72;;;3.45;;
41755;SDS011;27435;48.480;9.258;2023-08-12T04:09:51;7.20;;;4.05;;
41755;SDS011;27435;48.480;9.258;2023-08-12T04:12:17;5.00;;;3.60;;
41755;SDS011;27435;48.480;9.258;2023-08-12T04:14:43;7.60;;;3.90;;
41755;SDS011;27435;48.480;9.258;2023-08-12T04:17:08;9.80;;;3.75;;
41755;SDS011;27435;48.480;9.258;2023-08-12T04:19:34;5.47;;;3.72;;
41755;SDS011;27435;48.480;9.258;2023-08-12T04:21:59;10.70;;;4.18;;
41755;SDS011;27435;48.480;9.258;2023-08-12T04:24:25;5.45;;;3.35;;
41755;SDS011;27435;48.480;9.258;2023-08-12T04:26:51;7.35;;;3.83;;
41755;SDS011;27435;48.480;9.258;2023-08-12T04:29:16;7.43;;;3.80;;
41755;SDS011;27435;48.480;9.258;2023-08-12T04:31:42;5.82;;;3.40;;
41755;SDS011;27435;48.480;9.258;2023-08-12T04:34:08;4.55;;;3.42;;
41755;SDS011;27435;48.480;9.258;2023-08-12T04:36:33;6.35;;;4.40;;
41755;SDS011;27435;48.480;9.258;2023-08-12T04:38:59;9.20;;;4.28;;
41755;SDS011;27435;48.480;9.258;2023-08-12T04:41:24;8.43;;;3.92;;
41755;SDS011;27435;48.480;9.258;2023-08-12T04:43:50;7.30;;;3.63;;
41755;SDS011;27435;48.480;9.258;2023-08-12T04:46:15;5.78;;;3.38;;
41755;SDS011;27435;48.480;9.258;2023-08-12T04:48:41;9.45;;;4.10;;
41755;SDS011;27435;48.480;9.258;2023-08-12T04:51:07;6.05;;;3.63;;
41755;SDS011;27435;48.480;9.258;2023-08-12T04:53:32;8.60;;;3.60;;
41755;SDS011;27435;48.480;9.258;2023-08-12T04:55:58;7.47;;;3.75;;
41755;SDS011;27435;48.480;9.258;2023-08-12T04:58:23;7.45;;;3.53;;
41755;SDS011;27435;48.480;9.258;2023-08-12T05:00:50;8.05;;;3.92;;
41755;SDS011;27435;48.480;9.258;2023-08-12T05:03:17;6.32;;;3.35;;
41755;SDS011;27435;48.480;9.258;2023-08-12T05:05:42;8.88;;;3.20;;
41755;SDS011;27435;48.480;9.258;2023-08-12T05:08:08;6.03;;;3.30;;
41755;SDS011;27435;48.480;9.258;2023-08-12T05:10:34;5.57;;;3.38;;
41755;SDS011;27435;48.480;9.258;2023-08-12T05:12:59;9.20;;;3.42;;
41755;SDS011;27435;48.480;9.258;2023-08-12T05:15:25;8.20;;;3.35;;
41755;SDS011;27435;48.480;9.258;2023-08-12T05:17:50;5.47;;;3.30;;
41755;SDS011;27435;48.480;9.258;2023-08-12T05:20:16;4.95;;;3.10;;
41755;SDS011;27435;48.480;9.258;2023-08-12T05:22:42;7.35;;;3.50;;
41755;SDS011;27435;48.480;9.258;2023-08-12T05:25:07;4.95;;;3.28;;
41755;SDS011;27435;48.480;9.258;2023-08-12T05:27:33;11.77;;;3.28;;
41755;SDS011;27435;48.480;9.258;2023-08-12T05:29:59;5.55;;;3.67;;
41755;SDS011;27435;48.480;9.258;2023-08-12T05:32:24;5.07;;;3.80;;
41755;SDS011;27435;48.480;9.258;2023-08-12T05:34:52;5.68;;;2.83;;
41755;SDS011;27435;48.480;9.258;2023-08-12T05:37:18;7.65;;;3.50;;
41755;SDS011;27435;48.480;9.258;2023-08-12T05:39:43;4.53;;;3.17;;
41755;SDS011;27435;48.480;9.258;2023-08-12T05:42:09;9.23;;;3.35;;
41755;SDS011;27435;48.480;9.258;2023-08-12T05:44:34;5.30;;;3.53;;
41755;SDS011;27435;48.480;9.258;2023-08-12T05:47:00;6.35;;;3.25;;
41755;SDS011;27435;48.480;9.258;2023-08-12T05:49:25;5.63;;;3.35;;
41755;SDS011;27435;48.480;9.258;2023-08-12T05:51:51;6.97;;;3.50;;
41755;SDS011;27435;48.480;9.258;2023-08-12T05:54:17;8.40;;;3.67;;
41755;SDS011;27435;48.480;9.258;2023-08-12T05:56:42;4.80;;;3.20;;
41755;SDS011;27435;48.480;9.258;2023-08-12T05:59:08;5.78;;;3.40;;
41755;SDS011;27435;48.480;9.258;2023-08-12T06:01:33;4.78;;;2.90;;
41755;SDS011;27435;48.480;9.258;2023-08-12T06:03:59;7.28;;;3.15;;
41755;SDS011;27435;48.480;9.258;2023-08-12T06:06:25;5.03;;;3.17;;
41755;SDS011;27435;48.480;9.258;2023-08-12T06:08:50;5.88;;;3.25;;
41755;SDS011;27435;48.480;9.258;2023-08-12T06:11:16;5.35;;;3.20;;
41755;SDS011;27435;48.480;9.258;2023-08-12T06:13:41;4.95;;;3.03;;
41755;SDS011;27435;48.480;9.258;2023-08-12T06:16:07;6.60;;;3.15;;
41755;SDS011;27435;48.480;9.258;2023-08-12T06:18:33;7.63;;;3.20;;
41755;SDS011;27435;48.480;9.258;2023-08-12T06:20:59;4.72;;;2.95;;
41755;SDS011;27435;48.480;9.258;2023-08-12T06:23:25;5.65;;;3.28;;
41755;SDS011;27435;48.480;9.258;2023-08-12T06:25:50;5.43;;;3.42;;
41755;SDS011;27435;48.480;9.258;2023-08-12T06:28:16;4.50;;;3.05;;
41755;SDS011;27435;48.480;9.258;2023-08-12T06:30:44;6.10;;;3.53;;
41755;SDS011;27435;48.480;9.258;2023-08-12T06:33:10;3.92;;;2.58;;
41755;SDS011;27435;48.480;9.258;2023-08-12T06:35:36;4.50;;;3.10;;
41755;SDS011;27435;48.480;9.258;2023-08-12T06:38:02;6.78;;;3.03;;
41755;SDS011;27435;48.480;9.258;2023-08-12T06:40:28;5.65;;;3.10;;
41755;SDS011;27435;48.480;9.258;2023-08-12T06:42:55;10.75;;;3.30;;
41755;SDS011;27435;48.480;9.258;2023-08-12T06:45:21;6.38;;;2.50;;
41755;SDS011;27435;48.480;9.258;2023-08-12T06:47:47;4.13;;;2.35;;
41755;SDS011;27435;48.480;9.258;2023-08-12T06:50:12;6.10;;;2.70;;
41755;SDS011;27435;48.480;9.258;2023-08-12T06:52:38;4.15;;;2.42;;
41755;SDS011;27435;48.480;9.258;2023-08-12T06:55:03;4.30;;;2.42;;
41755;SDS011;27435;48.480;9.258;2023-08-12T06:57:29;6.35;;;2.78;;
41755;SDS011;27435;48.480;9.258;2023-08-12T06:59:55;3.70;;;2.45;;
41755;SDS011;27435;48.480;9.258;2023-08-12T07:02:20;5.03;;;2.33;;
41755;SDS011;27435;48.480;9.258;2023-08-12T07:04:46;5.13;;;2.22;;
41755;SDS011;27435;48.480;9.258;2023-08-12T07:07:12;5.22;;;2.65;;
41755;SDS011;27435;48.480;9.258;2023-08-12T07:09:37;7.45;;;2.35;;
41755;SDS011;27435;48.480;9.258;2023-08-12T07:12:03;4.40;;;2.55;;
41755;SDS011;27435;48.480;9.258;2023-08-12T07:14:29;6.80;;;3.28;;
41755;SDS011;27435;48.480;9.258;2023-08-12T07:16:54;5.60;;;2.42;;
41755;SDS011;27435;48.480;9.258;2023-08-12T07:19:20;8.38;;;2.67;;
41755;SDS011;27435;48.480;9.258;2023-08-12T07:21:46;5.90;;;2.33;;
41755;SDS011;27435;48.480;9.258;2023-08-12T07:24:12;5.90;;;2.65;;
41755;SDS011;27435;48.480;9.258;2023-08-12T07:26:38;5.40;;;2.13;;
41755;SDS011;27435;48.480;9.258;2023-08-12T07:29:03;5.43;;;2.15;;
41755;SDS011;27435;48.480;9.258;2023-08-12T07:31:29;4.75;;;2.30;;
41755;SDS011;27435;48.480;9.258;2023-08-12T07:33:54;3.78;;;2.30;;
41755;SDS011;27435;48.480;9.258;2023-08-12T07:36:20;4.60;;;2.10;;
41755;SDS011;27435;48.480;9.258;2023-08-12T07:38:46;7.53;;;2.30;;
41755;SDS011;27435;48.480;9.258;2023-08-12T07:41:11;3.67;;;2.20;;
41755;SDS011;27435;48.480;9.258;2023-08-12T07:43:37;9.43;;;2.53;;
41755;SDS011;27435;48.480;9.258;2023-08-12T07:46:02;7.55;;;2.55;;
41755;SDS011;27435;48.480;9.258;2023-08-12T07:48:29;6.38;;;2.47;;
41755;SDS011;27435;48.480;9.258;2023-08-12T07:50:56;7.03;;;2.47;;
41755;SDS011;27435;48.480;9.258;2023-08-12T07:53:22;4.22;;;2.63;;
41755;SDS011;27435;48.480;9.258;2023-08-12T07:55:47;5.57;;;2.40;;
41755;SDS011;27435;48.480;9.258;2023-08-12T07:58:13;3.67;;;2.53;;
41755;SDS011;27435;48.480;9.258;2023-08-12T08:00:39;4.65;;;2.30;;
41755;SDS011;27435;48.480;9.258;2023-08-12T08:03:04;7.00;;;2.45;;
41755;SDS011;27435;48.480;9.258;2023-08-12T08:05:30;6.82;;;2.20;;
41755;SDS011;27435;48.480;9.258;2023-08-12T08:07:56;3.50;;;2.10;;
41755;SDS011;27435;48.480;9.258;2023-08-12T08:10:21;4.20;;;2.08;;
41755;SDS011;27435;48.480;9.258;2023-08-12T08:12:47;4.25;;;1.95;;
41755;SDS011;27435;48.480;9.258;2023-08-12T08:15:13;4.60;;;2.40;;
41755;SDS011;27435;48.480;9.258;2023-08-12T08:17:38;5.05;;;2.08;;
41755;SDS011;27435;48.480;9.258;2023-08-12T08:20:04;4.15;;;1.90;;
41755;SDS011;27435;48.480;9.258;2023-08-12T08:22:31;4.88;;;2.10;;
41755;SDS011;27435;48.480;9.258;2023-08-12T08:24:57;5.60;;;1.83;;
41755;SDS011;27435;48.480;9.258;2023-08-12T08:27:22;6.38;;;2.33;;
41755;SDS011;27435;48.480;9.258;2023-08-12T08:29:48;5.47;;;2.10;;
41755;SDS011;27435;48.480;9.258;2023-08-12T08:32:14;5.68;;;2.30;;
41755;SDS011;27435;48.480;9.258;2023-08-12T08:34:39;5.10;;;2.03;;
41755;SDS011;27435;48.480;9.258;2023-08-12T08:37:05;6.47;;;2.63;;
41755;SDS011;27435;48.480;9.258;2023-08-12T08:39:31;5.75;;;2.30;;
41755;SDS011;27435;48.480;9.258;2023-08-12T08:41:56;4.25;;;2.42;;
41755;SDS011;27435;48.480;9.258;2023-08-12T08:44:23;5.45;;;2.60;;
41755;SDS011;27435;48.480;9.258;2023-08-12T08:46:54;3.75;;;2.38;;
41755;SDS011;27435;48.480;9.258;2023-08-12T08:49:20;4.90;;;2.00;;
41755;SDS011;27435;48.480;9.258;2023-08-12T08:51:47;6.65;;;2.53;;
41755;SDS011;27435;48.480;9.258;2023-08-12T08:54:14;5.93;;;2.60;;
41755;SDS011;27435;48.480;9.258;2023-08-12T08:56:40;8.55;;;2.53;;
41755;SDS011;27435;48.480;9.258;2023-08-12T08:59:07;8.48;;;2.70;;
41755;SDS011;27435;48.480;9.258;2023-08-12T09:01:32;5.13;;;2.65;;
41755;SDS011;27435;48.480;9.258;2023-08-12T09:04:01;5.35;;;2.60;;
41755;SDS011;27435;48.480;9.258;2023-08-12T09:06:29;8.48;;;2.55;;
41755;SDS011;27435;48.480;9.258;2023-08-12T09:08:55;4.72;;;2.20;;
41755;SDS011;27435;48.480;9.258;2023-08-12T09:11:21;3.70;;;2.25;;
41755;SDS011;27435;48.480;9.258;2023-08-12T09:13:48;5.43;;;2.85;;
41755;SDS011;27435;48.480;9.258;2023-08-12T09:16:14;4.90;;;2.22;;
41755;SDS011;27435;48.480;9.258;2023-08-12T09:18:40;9.10;;;2.38;;
41755;SDS011;27435;48.480;9.258;2023-08-12T09:21:08;3.78;;;2.50;;
41755;SDS011;27435;48.480;9.258;2023-08-12T09:23:35;4.85;;;2.03;;
41755;SDS011;27435;48.480;9.258;2023-08-12T09:26:14;6.38;;;2.78;;
41755;SDS011;27435;48.480;9.258;2023-08-12T09:28:41;4.38;;;2.35;;
41755;SDS011;27435;48.480;9.258;2023-08-12T09:31:07;4.35;;;2.53;;
41755;SDS011;27435;48.480;9.258;2023-08-12T09:33:33;3.58;;;2.28;;
41755;SDS011;27435;48.480;9.258;2023-08-12T09:36:04;5.00;;;2.22;;
41755;SDS011;27435;48.480;9.258;2023-08-12T09:38:30;7.65;;;2.63;;
41755;SDS011;27435;48.480;9.258;2023-08-12T09:40:56;4.80;;;2.15;;
41755;SDS011;27435;48.480;9.258;2023-08-12T09:43:27;7.90;;;2.40;;
41755;SDS011;27435;48.480;9.258;2023-08-12T09:45:55;6.72;;;2.17;;
41755;SDS011;27435;48.480;9.258;2023-08-12T09:48:24;4.82;;;2.00;;
41755;SDS011;27435;48.480;9.258;2023-08-12T09:50:50;3.45;;;1.90;;
41755;SDS011;27435;48.480;9.258;2023-08-12T09:53:17;7.82;;;2.35;;
41755;SDS011;27435;48.480;9.258;2023-08-12T09:55:43;4.65;;;2.05;;
41755;SDS011;27435;48.480;9.258;2023-08-12T09:58:12;3.92;;;1.88;;
41755;SDS011;27435;48.480;9.258;2023-08-12T10:00:42;5.40;;;1.90;;
41755;SDS011;27435;48.480;9.258;2023-08-12T10:03:08;4.65;;;1.92;;
41755;SDS011;27435;48.480;9.258;2023-08-12T10:05:35;5.85;;;2.30;;
41755;SDS011;27435;48.480;9.258;2023-08-12T10:08:02;8.27;;;2.28;;
41755;SDS011;27435;48.480;9.258;2023-08-12T10:10:30;5.63;;;1.92;;
41755;SDS011;27435;48.480;9.258;2023-08-12T10:12:58;4.43;;;2.00;;
41755;SDS011;27435;48.480;9.258;2023-08-12T10:15:24;6.28;;;1.77;;
41755;SDS011;27435;48.480;9.258;2023-08-12T10:17:51;3.70;;;1.77;;
41755;SDS011;27435;48.480;9.258;2023-08-12T10:20:20;5.45;;;1.83;;
41755;SDS011;27435;48.480;9.258;2023-08-12T10:22:47;6.28;;;1.67;;
41755;SDS011;27435;48.480;9.258;2023-08-12T10:25:14;4.60;;;2.00;;
41755;SDS011;27435;48.480;9.258;2023-08-12T10:27:40;3.13;;;1.75;;
41755;SDS011;27435;48.480;9.258;2023-08-12T10:30:06;5.30;;;2.10;;
41755;SDS011;27435;48.480;9.258;2023-08-12T10:32:33;2.67;;;1.67;;
41755;SDS011;27435;48.480;9.258;2023-08-12T10:34:59;6.03;;;2.28;;
41755;SDS011;27435;48.480;9.258;2023-08-12T10:37:25;7.45;;;2.28;;
41755;SDS011;27435;48.480;9.258;2023-08-12T10:39:52;6.30;;;2.30;;
41755;SDS011;27435;48.480;9.258;2023-08-12T10:45:11;4.65;;;2.03;;
41755;SDS011;27435;48.480;9.258;2023-08-12T10:47:39;4.95;;;2.00;;
41755;SDS011;27435;48.480;9.258;2023-08-12T10:50:16;6.55;;;2.30;;
41755;SDS011;27435;48.480;9.258;2023-08-12T10:52:43;3.78;;;2.10;;
41755;SDS011;27435;48.480;9.258;2023-08-12T10:55:21;6.10;;;2.00;;
41755;SDS011;27435;48.480;9.258;2023-08-12T10:57:47;3.55;;;1.90;;
41755;SDS011;27435;48.480;9.258;2023-08-12T11:00:18;3.65;;;1.73;;
41755;SDS011;27435;48.480;9.258;2023-08-12T11:02:54;6.03;;;1.80;;
41755;SDS011;27435;48.480;9.258;2023-08-12T11:05:22;4.60;;;1.63;;
41755;SDS011;27435;48.480;9.258;2023-08-12T11:07:49;5.85;;;2.67;;
41755;SDS011;27435;48.480;9.258;2023-08-12T11:10:15;6.55;;;1.63;;
41755;SDS011;27435;48.480;9.258;2023-08-12T11:15:37;3.95;;;1.88;;
41755;SDS011;27435;48.480;9.258;2023-08-12T11:18:19;5.22;;;1.83;;
41755;SDS011;27435;48.480;9.258;2023-08-12T11:20:49;5.57;;;1.80;;
41755;SDS011;27435;48.480;9.258;2023-08-12T11:23:14;4.32;;;1.58;;
41755;SDS011;27435;48.480;9.258;2023-08-12T11:25:42;9.18;;;2.20;;
41755;SDS011;27435;48.480;9.258;2023-08-12T11:28:09;3.00;;;1.67;;
41755;SDS011;27435;48.480;9.258;2023-08-12T11:30:35;5.40;;;1.48;;
41755;SDS011;27435;48.480;9.258;2023-08-12T11:33:01;2.22;;;1.50;;
41755;SDS011;27435;48.480;9.258;2023-08-12T11:35:28;3.30;;;1.33;;
41755;SDS011;27435;48.480;9.258;2023-08-12T11:37:55;5.40;;;1.50;;
41755;SDS011;27435;48.480;9.258;2023-08-12T11:40:22;3.60;;;1.70;;
41755;SDS011;27435;48.480;9.258;2023-08-12T11:42:50;4.32;;;1.65;;
41755;SDS011;27435;48.480;9.258;2023-08-12T11:45:20;3.03;;;1.40;;
41755;SDS011;27435;48.480;9.258;2023-08-12T11:47:47;3.03;;;1.30;;
41755;SDS011;27435;48.480;9.258;2023-08-12T11:50:17;5.15;;;1.83;;
41755;SDS011;27435;48.480;9.258;2023-08-12T11:52:44;5.82;;;1.42;;
41755;SDS011;27435;48.480;9.258;2023-08-12T11:55:11;3.33;;;1.33;;
41755;SDS011;27435;48.480;9.258;2023-08-12T11:57:38;5.00;;;2.00;;
41755;SDS011;27435;48.480;9.258;2023-08-12T12:00:05;4.60;;;1.75;;
41755;SDS011;27435;48.480;9.258;2023-08-12T12:02:39;3.53;;;1.70;;
41755;SDS011;27435;48.480;9.258;2023-08-12T12:05:10;4.03;;;2.17;;
41755;SDS011;27435;48.480;9.258;2023-08-12T12:07:36;4.43;;;1.65;;
41755;SDS011;27435;48.480;9.258;2023-08-12T12:10:03;3.60;;;1.55;;
41755;SDS011;27435;48.480;9.258;2023-08-12T12:12:30;5.60;;;1.52;;
41755;SDS011;27435;48.480;9.258;2023-08-12T12:15:00;5.55;;;1.60;;
41755;SDS011;27435;48.480;9.258;2023-08-12T12:17:26;4.40;;;1.40;;
41755;SDS011;27435;48.480;9.258;2023-08-12T12:19:55;3.42;;;1.60;;
41755;SDS011;27435;48.480;9.258;2023-08-12T12:22:31;4.13;;;2.10;;
41755;SDS011;27435;48.480;9.258;2023-08-12T12:25:04;7.70;;;2.50;;
41755;SDS011;27435;48.480;9.258;2023-08-12T12:27:34;4.97;;;1.73;;
41755;SDS011;27435;48.480;9.258;2023-08-12T12:30:00;3.15;;;1.70;;
41755;SDS011;27435;48.480;9.258;2023-08-12T12:32:26;4.57;;;1.88;;
41755;SDS011;27435;48.480;9.258;2023-08-12T12:34:52;3.58;;;1.60;;
41755;SDS011;27435;48.480;9.258;2023-08-12T12:37:19;3.25;;;1.70;;
41755;SDS011;27435;48.480;9.258;2023-08-12T12:39:45;3.75;;;1.73;;
41755;SDS011;27435;48.480;9.258;2023-08-12T12:42:12;5.38;;;1.90;;
41755;SDS011;27435;48.480;9.258;2023-08-12T12:44:37;4.35;;;1.92;;
41755;SDS011;27435;48.480;9.258;2023-08-12T12:47:03;4.68;;;1.88;;
41755;SDS011;27435;48.480;9.258;2023-08-12T12:49:29;7.95;;;1.90;;
41755;SDS011;27435;48.480;9.258;2023-08-12T12:51:55;12.95;;;2.75;;
41755;SDS011;27435;48.480;9.258;2023-08-12T12:54:20;5.18;;;2.80;;
41755;SDS011;27435;48.480;9.258;2023-08-12T12:56:46;4.68;;;2.38;;
41755;SDS011;27435;48.480;9.258;2023-08-12T12:59:12;10.68;;;3.15;;
41755;SDS011;27435;48.480;9.258;2023-08-12T13:01:39;9.02;;;3.13;;
41755;SDS011;27435;48.480;9.258;2023-08-12T13:04:06;6.95;;;2.88;;
41755;SDS011;27435;48.480;9.258;2023-08-12T13:06:33;9.23;;;3.63;;
41755;SDS011;27435;48.480;9.258;2023-08-12T13:08:59;7.43;;;4.10;;
41755;SDS011;27435;48.480;9.258;2023-08-12T13:11:25;7.45;;;3.58;;
41755;SDS011;27435;48.480;9.258;2023-08-12T13:13:51;9.65;;;4.45;;
41755;SDS011;27435;48.480;9.258;2023-08-12T13:16:17;8.48;;;4.30;;
41755;SDS011;27435;48.480;9.258;2023-08-12T13:18:42;6.82;;;3.45;;
41755;SDS011;27435;48.480;9.258;2023-08-12T13:21:08;6.40;;;3.80;;
41755;SDS011;27435;48.480;9.258;2023-08-12T13:23:34;7.65;;;4.05;;
41755;SDS011;27435;48.480;9.258;2023-08-12T13:25:59;8.52;;;4.45;;
41755;SDS011;27435;48.480;9.258;2023-08-12T13:28:25;8.05;;;4.25;;
41755;SDS011;27435;48.480;9.258;2023-08-12T13:30:50;7.68;;;4.28;;
41755;SDS011;27435;48.480;9.258;2023-08-12T13:33:16;9.30;;;4.60;;
41755;SDS011;27435;48.480;9.258;2023-08-12T13:35:43;7.15;;;4.20;;
41755;SDS011;27435;48.480;9.258;2023-08-12T13:38:09;5.30;;;3.80;;
41755;SDS011;27435;48.480;9.258;2023-08-12T13:40:34;7.45;;;3.92;;
41755;SDS011;27435;48.480;9.258;2023-08-12T13:43:00;6.78;;;3.42;;
41755;SDS011;27435;48.480;9.258;2023-08-12T13:45:25;7.05;;;3.40;;
41755;SDS011;27435;48.480;9.258;2023-08-12T13:47:51;7.07;;;3.92;;
41755;SDS011;27435;48.480;9.258;2023-08-12T13:50:17;7.55;;;2.80;;
41755;SDS011;27435;48.480;9.258;2023-08-12T13:52:45;3.47;;;1.90;;
41755;SDS011;27435;48.480;9.258;2023-08-12T13:55:12;4.63;;;2.10;;
41755;SDS011;27435;48.480;9.258;2023-08-12T13:57:38;3.10;;;2.15;;
41755;SDS011;27435;48.480;9.258;2023-08-12T14:00:04;3.33;;;1.70;;
41755;SDS011;27435;48.480;9.258;2023-08-12T14:02:34;5.13;;;2.53;;
41755;SDS011;27435;48.480;9.258;2023-08-12T14:05:01;4.95;;;2.15;;
41755;SDS011;27435;48.480;9.258;2023-08-12T14:07:27;6.40;;;1.80;;
41755;SDS011;27435;48.480;9.258;2023-08-12T14:09:53;5.50;;;1.65;;
41755;SDS011;27435;48.480;9.258;2023-08-12T14:12:18;3.42;;;1.30;;
41755;SDS011;27435;48.480;9.258;2023-08-12T14:14:44;2.47;;;1.10;;
41755;SDS011;27435;48.480;9.258;2023-08-12T14:17:10;3.05;;;1.13;;
41755;SDS011;27435;48.480;9.258;2023-08-12T14:19:38;3.03;;;1.20;;
41755;SDS011;27435;48.480;9.258;2023-08-12T14:22:05;2.22;;;1.00;;
41755;SDS011;27435;48.480;9.258;2023-08-12T14:24:30;3.95;;;1.25;;
41755;SDS011;27435;48.480;9.258;2023-08-12T14:26:56;2.58;;;1.00;;
41755;SDS011;27435;48.480;9.258;2023-08-12T14:29:21;1.90;;;0.90;;
41755;SDS011;27435;48.480;9.258;2023-08-12T14:31:47;2.78;;;1.02;;
41755;SDS011;27435;48.480;9.258;2023-08-12T14:34:13;4.38;;;1.42;;
41755;SDS011;27435;48.480;9.258;2023-08-12T14:36:38;3.80;;;1.38;;
41755;SDS011;27435;48.480;9.258;2023-08-12T14:39:04;3.08;;;1.23;;
41755;SDS011;27435;48.480;9.258;2023-08-12T14:41:29;5.82;;;1.50;;
41755;SDS011;27435;48.480;9.258;2023-08-12T14:43:55;2.95;;;1.40;;
41755;SDS011;27435;48.480;9.258;2023-08-12T14:46:21;4.82;;;1.05;;
41755;SDS011;27435;48.480;9.258;2023-08-12T14:48:46;3.03;;;1.30;;
41755;SDS011;27435;48.480;9.258;2023-08-12T14:51:12;3.85;;;1.55;;